Time;durP1;ratioP1;P1;durP2;ratioP2;P2;SDS_P1;SDS_P2;PMS_P1;PMS_P2;Temp;Humidity;BMP_temperature;BMP_pressure;BME280_temperature;BME280_humidity;BME280_pressure;Samples;Min_cycle;Max_cycle;Signal;HPM_P1;HPM_P2
2022/11/08 00:01:38;;;;;;;2.72;1.25;;;8.20;99.90;;;;;;4978229;28;20418;-74
2022/11/08 00:04:06;;;;;;;2.30;1.30;;;8.20;99.90;;;;;;4971299;28;20416;-73
2022/11/08 00:14:48;;;;;;;1.80;1.40;;;8.30;99.90;;;;;;4965601;28;20384;-73
2022/11/08 00:17:16;;;;;;;1.90;1.40;;;8.20;99.90;;;;;;4970254;28;20404;-74
2022/11/08 00:19:42;;;;;;;1.70;1.10;;;8.20;99.90;;;;;;4971547;28;20423;-74
2022/11/08 00:22:09;;;;;;;1.30;1.10;;;8.40;99.90;;;;;;4971344;28;20396;-74
2022/11/08 00:24:35;;;;;;;1.80;1.20;;;8.30;99.90;;;;;;4971139;28;20408;-75
2022/11/08 00:27:04;;;;;;;2.40;1.00;;;8.40;99.90;;;;;;4971435;28;20380;-74
2022/11/08 00:29:29;;;;;;;1.58;1.10;;;8.40;99.90;;;;;;4971484;28;20550;-73
2022/11/08 00:31:55;;;;;;;1.50;1.00;;;8.40;99.90;;;;;;4971337;28;20392;-73
2022/11/08 00:34:21;;;;;;;1.73;1.30;;;8.50;99.90;;;;;;4971154;28;20757;-74
2022/11/08 00:36:46;;;;;;;1.30;1.00;;;8.50;99.90;;;;;;4971327;28;20404;-74
2022/11/08 00:39:12;;;;;;;1.93;1.00;;;8.40;99.90;;;;;;4971280;28;20399;-74
2022/11/08 00:41:37;;;;;;;3.00;1.40;;;8.50;99.90;;;;;;4971933;28;20392;-73
2022/11/08 00:44:03;;;;;;;1.30;0.97;;;8.50;99.90;;;;;;4974937;28;20408;-74
2022/11/08 00:46:29;;;;;;;2.87;1.30;;;8.50;99.90;;;;;;4975362;28;21160;-73
2022/11/08 00:48:54;;;;;;;1.30;1.20;;;8.40;99.90;;;;;;4975142;28;20736;-73
2022/11/08 00:51:20;;;;;;;1.10;0.93;;;8.40;99.90;;;;;;4975143;28;20447;-74
2022/11/08 00:53:45;;;;;;;1.20;1.10;;;8.40;99.90;;;;;;4974769;28;20874;-75
2022/11/08 00:56:12;;;;;;;1.90;1.10;;;8.40;99.90;;;;;;4975066;28;20388;-73
2022/11/08 00:58:40;;;;;;;2.92;1.40;;;8.40;99.90;;;;;;4973523;28;20404;-75
2022/11/08 01:01:17;;;;;;;3.53;1.30;;;8.40;99.90;;;;;;4974968;28;20395;-75
2022/11/08 01:03:43;;;;;;;2.08;1.10;;;8.40;99.90;;;;;;4974403;28;20439;-75
2022/11/08 01:06:11;;;;;;;2.00;1.00;;;8.50;99.90;;;;;;4974667;28;20395;-73
2022/11/08 01:08:36;;;;;;;1.30;1.08;;;8.50;99.90;;;;;;4974831;28;20467;-75
2022/11/08 01:11:05;;;;;;;1.57;1.00;;;8.50;99.90;;;;;;4974832;28;20974;-75
2022/11/08 01:13:31;;;;;;;1.90;1.13;;;8.50;99.90;;;;;;4974625;28;20758;-73
2022/11/08 01:15:57;;;;;;;3.45;1.10;;;8.50;99.90;;;;;;4974692;28;20392;-73
2022/11/08 01:18:22;;;;;;;1.77;1.25;;;8.50;99.90;;;;;;4974712;28;20909;-74
2022/11/08 01:20:49;;;;;;;3.50;1.40;;;8.50;99.90;;;;;;4969889;28;20819;-75
2022/11/08 01:23:16;;;;;;;1.90;1.15;;;8.60;99.90;;;;;;4974122;28;20466;-75
2022/11/08 01:25:44;;;;;;;1.90;1.00;;;8.60;99.90;;;;;;4974406;28;20762;-75
2022/11/08 01:28:11;;;;;;;1.50;1.20;;;8.60;99.90;;;;;;4974288;28;20388;-74
2022/11/08 01:30:38;;;;;;;1.70;1.10;;;8.60;99.90;;;;;;4974389;28;20392;-74
2022/11/08 01:33:05;;;;;;;1.40;1.10;;;8.60;99.90;;;;;;4974134;28;20476;-73
2022/11/08 01:35:31;;;;;;;1.50;1.20;;;8.70;99.90;;;;;;4974252;28;20739;-73
2022/11/08 01:37:58;;;;;;;1.20;1.10;;;8.70;99.90;;;;;;4974297;28;20588;-74
2022/11/08 01:40:24;;;;;;;1.38;0.90;;;8.70;99.90;;;;;;4974250;28;20392;-74
2022/11/08 01:42:49;;;;;;;2.40;1.10;;;8.70;99.90;;;;;;4973963;28;20471;-73
2022/11/08 01:45:35;;;;;;;2.50;1.20;;;8.70;99.90;;;;;;4974189;28;20504;-74
2022/11/08 01:48:00;;;;;;;1.90;1.00;;;8.70;99.90;;;;;;4973881;28;20467;-73
2022/11/08 01:50:26;;;;;;;1.30;1.10;;;8.70;99.90;;;;;;4974103;28;20463;-74
2022/11/08 01:52:54;;;;;;;1.38;1.10;;;8.60;99.90;;;;;;4973597;28;21059;-73
2022/11/08 01:55:33;;;;;;;2.45;1.38;;;8.60;99.90;;;;;;4974108;28;20933;-75
2022/11/08 02:00:24;;;;;;;1.90;1.00;;;8.60;99.90;;;;;;4965638;23;20519;-71
2022/11/08 02:02:56;;;;;;;1.43;1.20;;;8.60;99.90;;;;;;4954262;28;20396;-71
2022/11/08 02:05:25;;;;;;;1.88;1.00;;;8.70;99.90;;;;;;4954219;28;20448;-70
2022/11/08 02:08:03;;;;;;;1.98;1.20;;;8.70;99.90;;;;;;4954603;28;20386;-71
2022/11/08 02:10:34;;;;;;;1.30;1.00;;;8.70;99.90;;;;;;4935235;29;20380;-71
2022/11/08 02:13:00;;;;;;;1.45;0.80;;;8.60;99.90;;;;;;4935103;29;20388;-71
2022/11/08 02:15:25;;;;;;;2.13;1.10;;;8.70;99.90;;;;;;4935572;29;20909;-70
2022/11/08 02:17:52;;;;;;;1.30;1.00;;;8.60;99.90;;;;;;4935421;29;20392;-71
2022/11/08 02:20:18;;;;;;;1.30;1.10;;;8.70;99.90;;;;;;4935049;29;20407;-70
2022/11/08 02:22:54;;;;;;;2.05;1.10;;;8.60;99.90;;;;;;4933339;29;20404;-71
2022/11/08 02:25:20;;;;;;;1.05;0.90;;;8.70;99.90;;;;;;4935114;29;20399;-71
2022/11/08 02:27:45;;;;;;;1.08;0.85;;;8.70;99.90;;;;;;4934932;29;20380;-71
2022/11/08 02:30:11;;;;;;;1.47;1.03;;;8.70;99.90;;;;;;4958210;28;20439;-71
2022/11/08 02:32:38;;;;;;;3.15;1.30;;;8.80;99.90;;;;;;4953719;28;20458;-70
2022/11/08 02:35:06;;;;;;;1.30;1.20;;;8.70;99.90;;;;;;4954124;28;20394;-71
2022/11/08 02:37:32;;;;;;;1.02;0.90;;;8.70;99.90;;;;;;4953843;28;20394;-71
2022/11/08 02:39:57;;;;;;;1.10;1.00;;;8.70;99.90;;;;;;4952550;28;20416;-71
2022/11/08 02:42:23;;;;;;;2.50;1.40;;;8.80;99.90;;;;;;4953826;28;20401;-71
2022/11/08 02:44:48;;;;;;;1.70;1.00;;;8.80;99.90;;;;;;4953572;28;20406;-71
2022/11/08 02:47:15;;;;;;;2.40;1.10;;;8.80;99.90;;;;;;4953787;28;20397;-72
2022/11/08 02:49:40;;;;;;;1.10;1.00;;;8.70;99.90;;;;;;4953658;28;20394;-72
2022/11/08 02:52:06;;;;;;;2.00;0.93;;;8.60;99.90;;;;;;4953687;28;20753;-71
2022/11/08 02:54:32;;;;;;;1.40;1.30;;;8.60;99.90;;;;;;4953390;28;20949;-72
2022/11/08 02:56:57;;;;;;;1.75;1.10;;;8.60;99.90;;;;;;4953658;28;20397;-71
2022/11/08 02:59:23;;;;;;;1.67;1.07;;;8.50;99.90;;;;;;4953439;28;20823;-71
2022/11/08 03:01:48;;;;;;;1.57;1.30;;;8.50;99.90;;;;;;4953587;28;20394;-71
2022/11/08 03:04:14;;;;;;;1.30;1.20;;;8.40;99.90;;;;;;4952832;28;20406;-71
2022/11/08 03:06:39;;;;;;;1.03;0.83;;;8.40;99.90;;;;;;4953204;28;20401;-72
2022/11/08 03:09:05;;;;;;;1.90;1.00;;;8.50;99.90;;;;;;4952509;28;20390;-69
2022/11/08 03:11:31;;;;;;;1.67;0.90;;;8.50;99.90;;;;;;4945462;29;20390;-72
2022/11/08 03:13:57;;;;;;;2.43;1.17;;;8.50;99.90;;;;;;4953066;28;20832;-71
2022/11/08 03:16:23;;;;;;;0.93;0.82;;;8.50;99.90;;;;;;4953218;28;20449;-72
2022/11/08 03:18:48;;;;;;;1.50;1.00;;;8.50;99.90;;;;;;4940106;28;20400;-71
2022/11/08 03:21:14;;;;;;;1.20;0.90;;;8.50;99.90;;;;;;4933938;29;20490;-72
2022/11/08 03:23:39;;;;;;;1.15;0.85;;;8.60;99.90;;;;;;4933643;29;20422;-72
2022/11/08 03:26:05;;;;;;;1.98;1.00;;;8.50;99.90;;;;;;4934172;29;20495;-72
2022/11/08 03:28:31;;;;;;;1.20;1.10;;;8.50;99.90;;;;;;4933939;29;20454;-71
2022/11/08 03:30:57;;;;;;;3.05;1.20;;;8.40;99.90;;;;;;4933893;29;20395;-72
2022/11/08 03:33:23;;;;;;;1.20;1.10;;;8.40;99.90;;;;;;4933564;29;20466;-71
2022/11/08 03:35:49;;;;;;;0.80;0.80;;;8.40;99.90;;;;;;4933744;29;20387;-71
2022/11/08 03:38:15;;;;;;;1.00;0.80;;;8.40;99.90;;;;;;4933699;29;20399;-71
2022/11/08 03:40:41;;;;;;;1.05;0.70;;;8.30;99.90;;;;;;4933791;29;20445;-72
2022/11/08 03:43:06;;;;;;;1.48;1.10;;;8.20;99.90;;;;;;4933246;29;20396;-71
2022/11/08 03:45:32;;;;;;;0.80;0.80;;;8.10;99.90;;;;;;4933737;29;20398;-70
2022/11/08 03:47:58;;;;;;;1.40;0.90;;;8.10;99.90;;;;;;4933516;29;20411;-72
2022/11/08 03:50:23;;;;;;;1.77;0.80;;;8.10;99.90;;;;;;4933500;29;20391;-71
2022/11/08 03:52:51;;;;;;;4.85;1.80;;;8.20;99.90;;;;;;4933210;29;20391;-72
2022/11/08 03:55:18;;;;;;;1.80;1.17;;;8.00;99.90;;;;;;4933564;29;20392;-72
2022/11/08 03:57:46;;;;;;;1.27;1.10;;;8.00;99.90;;;;;;4933476;29;20400;-71
2022/11/08 04:00:14;;;;;;;1.48;1.15;;;8.00;99.90;;;;;;4933410;29;20427;-72
2022/11/08 04:02:40;;;;;;;2.22;1.00;;;7.90;99.90;;;;;;4940077;29;20837;-71
2022/11/08 04:05:07;;;;;;;1.50;1.02;;;7.80;99.90;;;;;;4949102;29;20414;-71
2022/11/08 04:07:33;;;;;;;1.20;1.00;;;7.80;99.90;;;;;;4952372;28;20386;-72
2022/11/08 04:09:58;;;;;;;1.10;1.00;;;7.80;99.90;;;;;;4941475;28;20391;-71
2022/11/08 04:15:16;;;;;;;1.20;0.90;;;7.70;99.90;;;;;;4952677;29;20817;-71
2022/11/08 04:23:13;;;;;;;2.20;1.40;;;7.50;99.90;;;;;;4933693;29;20731;-71
2022/11/08 04:25:39;;;;;;;1.80;1.10;;;7.70;99.90;;;;;;4944283;28;20461;-71
2022/11/08 04:28:05;;;;;;;2.60;1.10;;;7.60;99.90;;;;;;4952251;28;20394;-71
2022/11/08 04:30:31;;;;;;;2.30;1.00;;;7.60;99.90;;;;;;4952348;28;20888;-72
2022/11/08 04:33:02;;;;;;;1.67;0.90;;;7.60;99.90;;;;;;4947749;28;20477;-71
2022/11/08 04:35:29;;;;;;;1.23;1.08;;;7.60;99.90;;;;;;4944331;28;20547;-70
2022/11/08 04:37:57;;;;;;;1.60;1.10;;;7.60;99.90;;;;;;4967076;28;20402;-71
2022/11/08 04:40:23;;;;;;;1.10;1.00;;;7.60;99.90;;;;;;4966905;28;20426;-72
2022/11/08 04:42:49;;;;;;;1.37;1.17;;;7.50;99.90;;;;;;4952051;28;20425;-72
2022/11/08 04:45:14;;;;;;;1.70;1.00;;;7.60;99.90;;;;;;4952116;28;20406;-72
2022/11/08 04:47:40;;;;;;;1.10;1.00;;;7.60;99.90;;;;;;4952320;28;20398;-70
2022/11/08 04:50:06;;;;;;;3.00;1.20;;;7.60;99.90;;;;;;4952076;28;20384;-72
2022/11/08 04:52:31;;;;;;;2.13;1.55;;;7.60;99.90;;;;;;4952344;28;20819;-71
2022/11/08 04:54:57;;;;;;;2.50;1.20;;;7.50;99.90;;;;;;4967054;28;20422;-71
2022/11/08 04:57:23;;;;;;;1.70;1.10;;;7.50;99.90;;;;;;4952206;28;20861;-71
2022/11/08 04:59:50;;;;;;;1.45;1.00;;;7.60;99.90;;;;;;4951206;28;21603;-70
2022/11/08 05:02:15;;;;;;;2.47;1.30;;;7.60;99.90;;;;;;4951321;28;20480;-71
2022/11/08 05:04:41;;;;;;;1.20;1.10;;;7.70;99.90;;;;;;4946667;28;20442;-71
2022/11/08 05:07:06;;;;;;;1.23;1.00;;;7.70;99.90;;;;;;4948929;29;20903;-71
2022/11/08 05:09:32;;;;;;;1.40;1.30;;;7.70;99.90;;;;;;4951868;28;20386;-72
2022/11/08 05:11:58;;;;;;;1.95;1.20;;;7.80;99.90;;;;;;4952093;28;20458;-72
2022/11/08 05:14:24;;;;;;;1.52;1.23;;;7.80;99.90;;;;;;4951708;28;20429;-71
2022/11/08 05:16:49;;;;;;;2.10;1.20;;;7.80;99.90;;;;;;4951922;28;20421;-71
2022/11/08 05:23:22;;;;;;;1.60;1.20;;;7.80;99.90;;;;;;4951901;28;20465;-71
2022/11/08 05:24:44;;;;;;;1.58;1.20;;;7.80;99.90;;;;;;4932344;29;20499;-72
2022/11/08 05:27:10;;;;;;;3.27;1.37;;;7.90;99.90;;;;;;4931479;29;20918;-71
2022/11/08 05:29:35;;;;;;;1.50;1.40;;;7.90;99.90;;;;;;4935721;29;20423;-70
2022/11/08 05:32:01;;;;;;;1.45;1.00;;;7.80;99.90;;;;;;4935459;29;20498;-72
2022/11/08 05:34:26;;;;;;;2.60;1.10;;;7.80;99.90;;;;;;4935510;29;20387;-72
2022/11/08 05:36:52;;;;;;;2.00;1.20;;;7.80;99.90;;;;;;4935968;29;20399;-71
2022/11/08 05:39:17;;;;;;;1.27;1.17;;;7.90;99.90;;;;;;4934836;29;20422;-72
2022/11/08 05:41:43;;;;;;;2.00;1.30;;;7.80;99.90;;;;;;4935380;29;20415;-71
2022/11/08 05:44:08;;;;;;;1.35;1.17;;;7.90;99.90;;;;;;4935287;29;20423;-71
2022/11/08 05:46:34;;;;;;;2.10;1.30;;;7.70;99.90;;;;;;4935014;29;20789;-71
2022/11/08 05:48:59;;;;;;;2.10;1.20;;;7.80;99.90;;;;;;4934968;28;20914;-72
2022/11/08 05:51:25;;;;;;;1.60;1.30;;;7.80;99.90;;;;;;4934186;29;20485;-72
2022/11/08 05:53:50;;;;;;;2.20;1.20;;;7.80;99.90;;;;;;4934621;29;20395;-72
2022/11/08 05:56:16;;;;;;;1.70;1.30;;;7.70;99.90;;;;;;4934723;29;20418;-72
2022/11/08 05:58:42;;;;;;;1.20;1.10;;;7.80;99.90;;;;;;4933875;29;20451;-72
2022/11/08 06:01:12;;;;;;;2.70;1.60;;;7.80;99.90;;;;;;4932101;29;20415;-72
2022/11/08 06:03:38;;;;;;;2.33;1.38;;;7.90;99.90;;;;;;4933548;28;20415;-72
2022/11/08 06:06:12;;;;;;;1.30;1.20;;;7.90;99.90;;;;;;4941444;29;20411;-72
2022/11/08 06:08:39;;;;;;;1.67;1.30;;;7.90;99.90;;;;;;4927861;29;20910;-72
2022/11/08 06:11:07;;;;;;;1.60;1.23;;;7.90;99.90;;;;;;4934925;29;20418;-71
2022/11/08 06:13:33;;;;;;;1.60;1.40;;;7.80;99.90;;;;;;4927397;29;20404;-72
2022/11/08 06:16:03;;;;;;;1.92;1.60;;;7.80;99.90;;;;;;4934546;29;20415;-71
2022/11/08 06:18:29;;;;;;;1.67;1.47;;;7.90;99.90;;;;;;4934748;29;20406;-72
2022/11/08 06:21:01;;;;;;;1.60;1.50;;;8.00;99.90;;;;;;4934887;29;20392;-72
2022/11/08 06:23:27;;;;;;;1.90;1.60;;;7.90;99.90;;;;;;4951813;29;20422;-73
2022/11/08 06:25:52;;;;;;;2.67;1.83;;;7.90;99.90;;;;;;4954125;28;20825;-72
2022/11/08 06:28:18;;;;;;;2.40;2.10;;;8.10;99.90;;;;;;4953842;28;20389;-72
2022/11/08 06:30:45;;;;;;;2.70;1.90;;;8.20;99.90;;;;;;4938892;28;20470;-72
2022/11/08 06:33:11;;;;;;;2.37;1.80;;;8.10;99.90;;;;;;4933885;29;20986;-73
2022/11/08 06:35:37;;;;;;;2.40;2.20;;;8.20;99.90;;;;;;4933446;29;20463;-72
2022/11/08 06:38:03;;;;;;;2.92;2.35;;;8.10;99.90;;;;;;4934800;29;20387;-72
2022/11/08 06:40:31;;;;;;;2.30;2.10;;;8.10;99.90;;;;;;4933995;29;20862;-72
2022/11/08 06:42:57;;;;;;;2.60;2.40;;;8.10;99.90;;;;;;4934551;29;20394;-73
2022/11/08 06:45:24;;;;;;;5.00;3.00;;;8.00;99.90;;;;;;4949269;28;20407;-73
2022/11/08 06:47:59;;;;;;;4.95;2.42;;;7.90;99.90;;;;;;4934528;29;20451;-72
2022/11/08 06:50:25;;;;;;;4.88;3.00;;;7.80;99.90;;;;;;4933426;29;20484;-73
2022/11/08 06:52:58;;;;;;;5.57;3.17;;;7.80;99.90;;;;;;4946068;28;20421;-72
2022/11/08 06:55:24;;;;;;;4.43;2.80;;;7.80;99.90;;;;;;4933778;29;20435;-73
2022/11/08 06:57:50;;;;;;;3.47;3.05;;;7.90;99.90;;;;;;4933195;29;20487;-72
2022/11/08 07:00:15;;;;;;;3.53;2.90;;;7.90;99.90;;;;;;4932779;29;20446;-73
2022/11/08 07:02:43;;;;;;;3.92;2.35;;;7.80;99.90;;;;;;4934134;29;20395;-72
2022/11/08 07:05:09;;;;;;;2.95;2.70;;;7.90;99.90;;;;;;4933687;29;20447;-72
2022/11/08 07:07:34;;;;;;;3.53;2.30;;;7.90;99.90;;;;;;4934181;29;20395;-72
2022/11/08 07:10:00;;;;;;;2.20;1.98;;;7.90;99.90;;;;;;4933319;29;20407;-71
2022/11/08 07:12:26;;;;;;;2.00;1.50;;;8.00;99.90;;;;;;4933790;29;20403;-72
2022/11/08 07:14:51;;;;;;;2.30;1.70;;;8.10;99.90;;;;;;4947956;28;20411;-72
2022/11/08 07:17:17;;;;;;;1.90;1.80;;;8.20;99.90;;;;;;4933239;29;20395;-71
2022/11/08 07:19:42;;;;;;;2.97;1.80;;;8.30;99.90;;;;;;4948117;28;20902;-72
2022/11/08 07:22:08;;;;;;;2.72;1.80;;;8.30;99.90;;;;;;4932724;29;20790;-72
2022/11/08 07:24:33;;;;;;;2.30;2.00;;;8.40;99.90;;;;;;4932732;29;20416;-72
2022/11/08 07:26:59;;;;;;;2.00;1.70;;;8.50;99.90;;;;;;4933213;29;20392;-72
2022/11/08 07:29:24;;;;;;;2.70;1.90;;;8.60;99.90;;;;;;4933795;29;20470;-72
2022/11/08 07:31:50;;;;;;;2.00;1.80;;;8.80;99.90;;;;;;4933783;29;20482;-72
2022/11/08 07:34:16;;;;;;;2.30;1.90;;;8.80;99.90;;;;;;4933652;29;20392;-73
2022/11/08 07:36:42;;;;;;;2.25;1.63;;;8.90;99.90;;;;;;4933765;29;20391;-72
2022/11/08 07:39:08;;;;;;;1.63;1.52;;;8.90;99.90;;;;;;4933913;29;20391;-72
2022/11/08 07:41:33;;;;;;;2.70;1.80;;;9.10;99.90;;;;;;4933740;29;20388;-72
2022/11/08 07:43:59;;;;;;;2.40;1.90;;;9.20;99.90;;;;;;4933353;29;20910;-72
2022/11/08 07:46:24;;;;;;;2.93;1.63;;;9.20;99.90;;;;;;4933522;29;20399;-73
2022/11/08 07:48:50;;;;;;;3.30;1.80;;;9.20;99.90;;;;;;4933640;29;20430;-72
2022/11/08 07:51:16;;;;;;;2.50;1.80;;;9.20;99.90;;;;;;4932225;29;20557;-73
2022/11/08 07:53:42;;;;;;;2.20;1.90;;;9.20;99.90;;;;;;4933313;29;20419;-72
2022/11/08 07:56:08;;;;;;;2.60;2.10;;;9.30;99.90;;;;;;4933589;29;20406;-72
2022/11/08 07:58:33;;;;;;;4.70;2.50;;;9.40;99.90;;;;;;4957718;23;20415;-73
2022/11/08 08:01:02;;;;;;;3.30;1.83;;;9.50;99.90;;;;;;4991330;28;20399;-72
2022/11/08 08:03:28;;;;;;;2.70;1.80;;;9.60;99.90;;;;;;4990807;28;20425;-73
2022/11/08 08:05:54;;;;;;;2.10;1.90;;;9.70;99.90;;;;;;4991098;28;20754;-72
2022/11/08 08:08:20;;;;;;;3.07;1.60;;;9.70;99.90;;;;;;5006282;28;20432;-73
2022/11/08 08:10:45;;;;;;;4.93;1.80;;;9.80;99.90;;;;;;4990884;28;20765;-73
2022/11/08 08:13:11;;;;;;;2.17;1.60;;;9.90;99.90;;;;;;4990636;28;20398;-73
2022/11/08 08:15:37;;;;;;;3.30;1.80;;;9.90;99.90;;;;;;4991063;28;20390;-73
2022/11/08 08:18:04;;;;;;;1.90;1.70;;;10.00;99.90;;;;;;4990983;28;20389;-73
2022/11/08 08:20:31;;;;;;;2.30;1.50;;;10.10;99.90;;;;;;4990865;28;20479;-73
2022/11/08 08:22:57;;;;;;;2.25;1.50;;;10.20;99.90;;;;;;4990457;28;20401;-74
2022/11/08 08:25:23;;;;;;;2.70;1.80;;;10.10;99.90;;;;;;4990872;28;20460;-73
2022/11/08 08:27:54;;;;;;;2.55;2.20;;;10.10;99.90;;;;;;4990816;28;20387;-73
2022/11/08 08:30:20;;;;;;;2.40;2.10;;;10.10;99.90;;;;;;4990758;28;20389;-73
2022/11/08 08:32:46;;;;;;;3.63;2.08;;;10.10;99.90;;;;;;4990575;28;20959;-73
2022/11/08 08:35:12;;;;;;;3.20;2.10;;;10.00;99.90;;;;;;4990869;28;20386;-73
2022/11/08 08:37:38;;;;;;;3.10;1.90;;;10.10;99.90;;;;;;4990721;28;20473;-73
2022/11/08 08:40:04;;;;;;;3.10;2.05;;;10.20;99.90;;;;;;4989481;28;20474;-73
2022/11/08 08:42:32;;;;;;;2.83;2.00;;;10.40;99.90;;;;;;4990603;28;20397;-73
2022/11/08 08:44:57;;;;;;;3.03;2.27;;;10.40;99.90;;;;;;4990787;28;21028;-72
2022/11/08 08:47:23;;;;;;;2.80;2.07;;;10.60;99.90;;;;;;4990645;28;20422;-73
2022/11/08 08:49:49;;;;;;;2.65;1.65;;;10.80;99.90;;;;;;4990720;28;20403;-73
2022/11/08 08:52:14;;;;;;;2.63;1.80;;;10.90;99.90;;;;;;4990642;28;20393;-73
2022/11/08 08:54:40;;;;;;;1.90;1.70;;;11.00;99.90;;;;;;4990652;28;20820;-73
2022/11/08 08:57:05;;;;;;;2.03;1.40;;;11.00;99.90;;;;;;4990581;28;20398;-74
2022/11/08 08:59:31;;;;;;;2.00;1.70;;;11.00;99.90;;;;;;4990448;28;20447;-72
2022/11/08 09:01:58;;;;;;;2.55;2.30;;;11.00;99.90;;;;;;4990688;28;21029;-73
2022/11/08 09:04:24;;;;;;;3.03;1.70;;;10.90;99.90;;;;;;4993347;28;20484;-73
2022/11/08 09:06:49;;;;;;;2.10;1.70;;;10.80;99.90;;;;;;4993035;28;20489;-74
2022/11/08 09:09:15;;;;;;;2.00;1.63;;;11.10;99.90;;;;;;4994331;28;20386;-73
2022/11/08 09:11:40;;;;;;;7.50;2.00;;;11.10;99.90;;;;;;4994093;28;20393;-73
2022/11/08 09:14:06;;;;;;;6.27;2.20;;;11.10;99.90;;;;;;4994018;28;20395;-74
2022/11/08 09:16:31;;;;;;;4.67;2.13;;;11.30;99.90;;;;;;4994230;28;20387;-74
2022/11/08 09:18:57;;;;;;;2.40;1.80;;;11.60;99.90;;;;;;4994154;28;20398;-73
2022/11/08 09:21:22;;;;;;;4.40;2.20;;;11.60;99.90;;;;;;4982798;28;20427;-73
2022/11/08 09:23:48;;;;;;;3.83;2.40;;;11.70;99.90;;;;;;4974425;28;20764;-74
2022/11/08 09:26:13;;;;;;;4.10;1.90;;;11.80;99.90;;;;;;4974509;28;20740;-73
2022/11/08 09:28:39;;;;;;;4.10;1.70;;;11.80;99.90;;;;;;4974579;28;20384;-73
2022/11/08 09:31:08;;;;;;;3.47;2.10;;;11.90;99.90;;;;;;4974446;28;20392;-73
2022/11/08 09:33:34;;;;;;;1.83;1.35;;;12.00;99.90;;;;;;4974272;28;20388;-73
2022/11/08 09:36:01;;;;;;;2.92;1.92;;;12.10;99.90;;;;;;4973125;28;20835;-73
2022/11/08 09:38:27;;;;;;;3.58;2.10;;;12.10;99.90;;;;;;4974235;28;20396;-74
2022/11/08 09:41:02;;;;;;;3.40;1.90;;;12.20;99.90;;;;;;4974163;28;20392;-74
2022/11/08 09:43:49;;;;;;;3.85;2.38;;;12.30;99.90;;;;;;4973974;28;20387;-73
2022/11/08 09:46:39;;;;;;;2.78;2.03;;;12.50;99.90;;;;;;4972888;28;20389;-74
2022/11/08 09:49:12;;;;;;;6.53;2.10;;;12.60;99.90;;;;;;4974513;28;20462;-75
2022/11/08 09:51:39;;;;;;;4.30;2.28;;;12.70;99.90;;;;;;4974552;28;20883;-74
2022/11/08 09:54:11;;;;;;;3.17;1.85;;;12.90;99.90;;;;;;4972750;28;20407;-74
2022/11/08 09:56:38;;;;;;;2.60;1.85;;;13.10;99.90;;;;;;4974359;28;20491;-74
2022/11/08 09:59:31;;;;;;;2.05;1.30;;;13.50;99.90;;;;;;4989257;28;20400;-74
2022/11/08 10:01:57;;;;;;;1.80;1.50;;;14.30;97.90;;;;;;4975775;28;20411;-74
2022/11/08 10:04:29;;;;;;;2.13;1.40;;;15.00;94.80;;;;;;4974151;28;20416;-73
2022/11/08 10:07:09;;;;;;;1.80;1.60;;;15.20;95.90;;;;;;4974024;28;20863;-74
2022/11/08 10:09:57;;;;;;;2.60;1.50;;;15.50;94.30;;;;;;4972582;28;20427;-74
2022/11/08 10:12:43;;;;;;;2.60;1.70;;;15.60;96.10;;;;;;4973789;28;20522;-76
2022/11/08 10:15:30;;;;;;;2.50;1.47;;;16.00;91.90;;;;;;4972552;28;20941;-75
2022/11/08 10:18:11;;;;;;;2.90;1.90;;;16.40;86.10;;;;;;4973666;28;20416;-73
2022/11/08 10:20:52;;;;;;;4.10;2.50;;;16.70;81.70;;;;;;4978787;28;20397;-74
2022/11/08 10:23:20;;;;;;;3.60;1.40;;;16.80;84.40;;;;;;4992501;28;20398;-74
2022/11/08 10:26:04;;;;;;;4.05;1.80;;;16.90;80.20;;;;;;4993036;28;20386;-74
2022/11/08 10:28:37;;;;;;;2.72;1.52;;;16.90;79.60;;;;;;4992869;28;20422;-73
2022/11/08 10:31:03;;;;;;;2.50;1.30;;;16.90;78.70;;;;;;4993170;28;20940;-74
2022/11/08 10:33:39;;;;;;;1.75;1.40;;;17.00;80.30;;;;;;4992592;28;20402;-74
2022/11/08 10:36:26;;;;;;;2.70;1.50;;;17.30;77.50;;;;;;4992924;28;20397;-74
2022/11/08 10:39:13;;;;;;;2.60;1.50;;;17.60;75.30;;;;;;4992577;28;20382;-73
2022/11/08 10:42:02;;;;;;;1.95;1.40;;;18.00;71.40;;;;;;4992737;28;20397;-73
2022/11/08 10:44:28;;;;;;;3.38;1.60;;;18.30;68.60;;;;;;4991028;28;20410;-74
2022/11/08 10:46:56;;;;;;;3.30;1.40;;;18.70;68.00;;;;;;4992584;28;20414;-74
2022/11/08 10:49:37;;;;;;;1.70;1.00;;;19.00;65.80;;;;;;4992359;28;20796;-73
2022/11/08 10:52:14;;;;;;;1.20;1.10;;;19.20;60.30;;;;;;4992501;28;20387;-74
2022/11/08 10:54:53;;;;;;;1.73;1.40;;;19.60;58.70;;;;;;4988972;28;20403;-76
2022/11/08 10:57:42;;;;;;;2.37;1.10;;;19.80;56.20;;;;;;4972865;28;20395;-74
2022/11/08 11:00:23;;;;;;;2.35;2.10;;;19.80;56.40;;;;;;4972630;28;20404;-75
2022/11/08 11:03:08;;;;;;;3.00;1.80;;;19.60;55.80;;;;;;4972462;28;20392;-75
2022/11/08 11:05:36;;;;;;;1.35;1.20;;;19.30;56.30;;;;;;4972639;28;20411;-75
2022/11/08 11:08:08;;;;;;;1.00;0.80;;;18.90;57.00;;;;;;4972575;28;20933;-72
2022/11/08 11:10:36;;;;;;;1.17;1.00;;;18.80;57.10;;;;;;4972663;28;20450;-73
2022/11/08 11:13:12;;;;;;;1.20;0.80;;;18.80;57.50;;;;;;4972218;28;20399;-74
2022/11/08 11:15:46;;;;;;;2.30;0.90;;;18.80;58.00;;;;;;4971331;28;20392;-74
2022/11/08 11:18:26;;;;;;;1.88;0.90;;;18.80;57.30;;;;;;4972491;28;20384;-73
2022/11/08 11:21:08;;;;;;;1.50;1.13;;;18.90;58.70;;;;;;4979996;28;20406;-73
2022/11/08 11:23:37;;;;;;;1.40;1.10;;;18.80;59.30;;;;;;4990764;28;20415;-73
2022/11/08 11:26:05;;;;;;;1.60;1.30;;;18.90;59.80;;;;;;4991317;28;20501;-73
2022/11/08 11:28:30;;;;;;;1.60;1.40;;;18.80;60.20;;;;;;4991624;28;20386;-73
2022/11/08 11:31:02;;;;;;;2.25;1.42;;;18.90;60.30;;;;;;4991639;28;20736;-73
2022/11/08 11:33:29;;;;;;;3.33;1.08;;;18.90;63.80;;;;;;4991313;28;20458;-74
2022/11/08 11:36:02;;;;;;;1.30;1.20;;;18.90;61.10;;;;;;4991552;28;20429;-74
2022/11/08 11:38:38;;;;;;;1.70;1.20;;;18.90;62.30;;;;;;4991269;28;20715;-73
2022/11/08 11:41:13;;;;;;;2.08;1.45;;;18.90;64.70;;;;;;4991569;28;20394;-73
2022/11/08 11:43:55;;;;;;;3.15;1.40;;;19.70;65.20;;;;;;4991129;28;20467;-74
2022/11/08 11:46:36;;;;;;;1.73;1.48;;;20.10;61.10;;;;;;4991468;28;20390;-75
2022/11/08 11:49:05;;;;;;;3.75;1.80;;;21.60;59.30;;;;;;4991139;28;20390;-73
2022/11/08 11:51:31;;;;;;;2.65;1.40;;;20.50;57.70;;;;;;4991304;28;20730;-74
2022/11/08 11:53:57;;;;;;;2.10;1.30;;;22.30;57.30;;;;;;4991806;28;20386;-74
2022/11/08 11:56:39;;;;;;;1.30;1.10;;;23.00;56.00;;;;;;4991306;28;20393;-74
2022/11/08 11:59:38;;;;;;;2.15;1.20;;;22.90;57.00;;;;;;4991108;28;20790;-74
2022/11/08 12:02:24;;;;;;;1.33;1.23;;;23.70;56.00;;;;;;4991228;28;20425;-74
2022/11/08 12:05:20;;;;;;;1.67;1.17;;;22.30;54.80;;;;;;4990967;28;20413;-74
2022/11/08 12:07:59;;;;;;;3.43;1.50;;;22.40;56.00;;;;;;4990953;28;20872;-74
2022/11/08 12:10:59;;;;;;;2.70;1.50;;;21.50;57.20;;;;;;4991153;28;20386;-74
2022/11/08 12:13:48;;;;;;;2.70;1.20;;;22.10;57.40;;;;;;4990864;28;20379;-75
2022/11/08 12:16:17;;;;;;;1.60;1.40;;;22.20;56.60;;;;;;4991112;28;20397;-75
2022/11/08 12:19:00;;;;;;;2.20;1.10;;;23.00;55.80;;;;;;4991029;28;20429;-74
2022/11/08 12:21:58;;;;;;;1.60;1.33;;;22.20;55.50;;;;;;4990535;28;20816;-76
2022/11/08 12:24:36;;;;;;;1.10;1.00;;;21.60;55.90;;;;;;4990532;28;20421;-74
2022/11/08 12:27:23;;;;;;;2.00;1.27;;;22.30;55.60;;;;;;4990962;28;20390;-73
2022/11/08 12:30:10;;;;;;;1.27;1.00;;;22.40;55.20;;;;;;4990638;28;20401;-75
2022/11/08 12:33:03;;;;;;;2.50;0.98;;;23.20;54.40;;;;;;4989438;28;20857;-76
2022/11/08 12:35:52;;;;;;;1.38;0.80;;;23.70;49.10;;;;;;4990804;28;20900;-75
2022/11/08 12:38:45;;;;;;;1.30;0.80;;;23.20;49.00;;;;;;4990938;28;20399;-74
2022/11/08 12:41:45;;;;;;;1.20;0.90;;;23.20;49.60;;;;;;4995005;28;20390;-74
2022/11/08 12:44:32;;;;;;;1.93;0.90;;;23.30;49.50;;;;;;4994497;28;20781;-74
2022/11/08 12:47:18;;;;;;;1.55;1.00;;;22.10;48.80;;;;;;4994746;28;20473;-75
2022/11/08 12:50:19;;;;;;;1.60;0.80;;;21.20;51.90;;;;;;4994485;28;20477;-75
2022/11/08 12:53:05;;;;;;;1.90;1.30;;;21.20;53.10;;;;;;4994211;28;20489;-74
2022/11/08 12:55:36;;;;;;;1.67;0.85;;;21.50;53.70;;;;;;4994501;28;20432;-73
2022/11/08 12:58:31;;;;;;;1.37;0.87;;;21.60;54.00;;;;;;4994668;28;21051;-74
2022/11/08 13:01:01;;;;;;;1.30;1.10;;;22.10;53.70;;;;;;4994833;28;20395;-74
2022/11/08 13:03:43;;;;;;;3.22;1.15;;;23.10;52.50;;;;;;4994035;28;20414;-73
2022/11/08 13:06:33;;;;;;;1.65;1.00;;;24.40;51.00;;;;;;4994325;28;20409;-75
2022/11/08 13:09:17;;;;;;;2.35;1.00;;;24.40;48.90;;;;;;4994264;28;20429;-74
2022/11/08 13:12:17;;;;;;;1.45;1.15;;;23.80;47.60;;;;;;4993048;28;20390;-74
2022/11/08 13:14:43;;;;;;;1.23;1.08;;;24.50;48.80;;;;;;4988627;28;20930;-73
2022/11/08 13:17:25;;;;;;;1.67;1.15;;;24.00;50.70;;;;;;4981692;28;20450;-74
2022/11/08 13:19:50;;;;;;;2.50;1.30;;;23.70;51.70;;;;;;4990684;28;20410;-74
2022/11/08 13:22:28;;;;;;;1.50;1.20;;;23.90;51.60;;;;;;4992138;28;20410;-73
2022/11/08 13:24:58;;;;;;;0.90;0.80;;;23.70;50.10;;;;;;4991183;28;20446;-74
2022/11/08 13:27:42;;;;;;;2.33;1.10;;;23.80;49.20;;;;;;4981958;28;20475;-74
2022/11/08 13:30:10;;;;;;;1.80;1.20;;;23.60;49.30;;;;;;4990743;28;20389;-73